Aérodrome :
LOGIN :

S'inscrire | Disclaimer

   EN    FR    IT 

 










Légende :    VFR   VFR Marginal   IFR   IFR Intensif   IFR Très Intensif
Visi : 
Plafond : 
>= 8 km
>= 3000ft
5 à 8 km
1000 à 3000 ft
1500m à 5 km
500 à 1000 ft
800 à 1500m
200 à 500 ft
< 800m
< 200 ft
Symboles :   Orages  Brouillard  Fortes neiges  Fortes précipitations  Vent > 20 kt
SIGMETs :   Divers  Orages  Givrage  Turbulence  Onde Orograph.  Cendres Volcan.






- Altitude de l'aérodrome : 1273 ft
- Code IATA : LJU


LJLJ - Ljubljana

DERNIER METAR :
  • 071530Z 12008KT 9999 FEW035 BKN055 25/13 Q1018 NOSIG

METARs EXPIRÉS :
  • 071500Z 11008KT 9999 FEW035 BKN055 25/14 Q1018 NOSIG
  • 071430Z 11007KT 080V140 9999 FEW035 BKN055 26/14 Q1018 NOSIG
  • 071400Z 12007KT 9999 FEW035 BKN055 25/13 Q1018 NOSIG
  • 071330Z 12006KT 070V160 9999 FEW035 BKN055 26/13 Q1018 NOSIG
  • 071300Z 12004KT 020V150 9999 FEW025 BKN055 26/14 Q1019 NOSIG

TAF TAF LJLJ
Valide du 07 à 12h jusqu'au 08 à 12h UTC


071100Z 0712/0812 09005KT 9999 FEW035 BKN070
TEMPO 0712/0719 12012KT
TEMPO 0712/0812 -SHRA BKN035TCU
PROB30
TEMPO 0810/0812 -TSRA SCT045CB



MET'MAP, la Météo Aéronautique d'un coup d'oeil ! - Copyright ORBIFLY Décembre 2007 - Disclaimer

ORBIFLY MET'MAP TEAM :

Programmation & Développement : Alexandra Zaïnal
Sur une idée originale de : Baudouin d'Aumeries
Soutien technique & logistique : Manuel Goepfert
Assistance : Marc-Olivier Méhu




SOURCES & CREDITS :

   NOAA